Flight Track Log - Related Links

Times and Time Zones

All times are in EDT time to prevent confusion due to time zone crossing. See the SWA1796 flight status page for this flight to view local times or setup timezone preferences in your user account.


Time Position Orientation Groundspeed Altitude Reporting Facility
EDT Latitude Longitude Course Direction KTS MPH feet Rate Location/Type
Sat 06:27:18 PM 26.0750 -80.1297 83° East 139 160 1,200  Level Miami Center
Sat 06:27:46 PM 26.0778 -80.1044 83° East 168 193 1,900 2,302 Climbing Miami Center
Sat 06:28:44 PM 26.0833 -80.0419 84° East 229 264 4,500 1,699 Climbing Miami Center
Sat 06:29:39 PM 26.1461 -80.0392 North 271 312 5,100 1,672 Climbing Miami Center
Sat 06:30:46 PM 26.2097 -80.0872 326° Northwest 280 322 7,900 1,890 Climbing Miami Center
Sat 06:31:46 PM 26.2328 -80.1711 287° West 296 341 9,100 1,450 Climbing Miami Center
Sat 06:32:46 PM 26.2625 -80.2461 294° West 296 341 10,800 1,800 Climbing Miami Center
Sat 06:33:46 PM 26.3486 -80.3133 325° Northwest 311 358 12,700 2,050 Climbing Miami Center
Sat 06:34:46 PM 26.4333 -80.3531 337° Northwest 359 413 14,900 2,400 Climbing Miami Center
Sat 06:35:46 PM 26.5450 -80.3981 340° North 377 434 17,500 2,150 Climbing Miami Center
Sat 06:36:46 PM 26.6422 -80.4358 341° North 398 458 19,200 2,050 Climbing Miami Center
Sat 06:37:46 PM 26.7622 -80.4836 340° North 405 466 21,600 1,950 Climbing Miami Center
Sat 06:38:46 PM 26.8614 -80.5264 339° North 410 472 23,100 1,650 Climbing Miami Center
Sat 06:39:46 PM 26.9772 -80.5719 341° North 423 487 24,900 1,950 Climbing Miami Center
Sat 06:40:46 PM 27.0908 -80.6131 342° North 430 495 27,000 1,700 Climbing Miami Center
Sat 06:41:46 PM 27.2025 -80.6608 339° North 430 495 28,300 1,200 Climbing Miami Center
Sat 06:42:46 PM 27.3203 -80.7069 341° North 430 495 29,400 1,250 Climbing Miami Center
Sat 06:43:46 PM 27.4381 -80.7528 341° North 430 495 30,800 1,400 Climbing Miami Center
Sat 06:44:46 PM 27.5539 -80.7944 342° North 435 501 32,200 1,350 Climbing Miami Center
Sat 06:45:46 PM 27.6653 -80.8428 339° North 435 501 33,500 1,400 Climbing Miami Center
Sat 06:46:46 PM 27.7831 -80.8867 342° North 440 506 35,000 1,500 Climbing Miami Center
Sat 06:47:46 PM 27.8903 -80.9306 340° North 429 494 36,500 1,000 Climbing Miami Center
Sat 06:48:46 PM 28.0017 -80.9744 341° North 424 488 37,000 250 Climbing Miami Center
Sat 06:49:46 PM 28.1069 -81.0183 340° North 418 481 37,000  Level Miami Center
Sat 06:50:46 PM 28.2119 -81.0597 341° North 407 468 37,000  Level Miami Center
Sat 06:51:46 PM 28.3192 -81.1061 339° North 407 468 37,000  Level Miami Center
Sat 06:52:46 PM 28.4161 -81.1431 341° North 407 468 37,000  Level Miami Center
Sat 06:53:33 PM 28.5225 -81.1914 338° Northwest 407 468 37,000  Level Jacksonville Center
Sat 06:54:33 PM 28.6317 -81.2344 341° North 412 474 37,000  Level Jacksonville Center
Sat 06:55:33 PM 28.7386 -81.2778 340° North 412 474 37,000  Level Jacksonville Center
Sat 06:56:33 PM 28.8458 -81.3233 340° North 412 474 37,000  Level Jacksonville Center
Sat 06:57:33 PM 28.9569 -81.3692 340° North 412 474 37,000  Level Jacksonville Center
Sat 06:58:33 PM 29.0658 -81.4103 342° North 412 474 37,000  Level Jacksonville Center
Sat 06:59:33 PM 29.1708 -81.4561 339° North 412 474 37,000  Level Jacksonville Center
Sat 07:00:33 PM 29.2756 -81.5000 340° North 405 466 37,000  Level Jacksonville Center
Sat 07:01:33 PM 29.3847 -81.5461 340° North 405 466 37,000  Level Jacksonville Center
Sat 07:02:33 PM 29.4917 -81.5922 339° North 410 472 37,000  Level Jacksonville Center
Sat 07:03:33 PM 29.5986 -81.6361 340° North 410 472 37,000  Level Jacksonville Center
Sat 07:04:33 PM 29.7053 -81.6803 340° North 410 472 37,000  Level Jacksonville Center
Sat 07:05:33 PM 29.8144 -81.7244 341° North 410 472 37,000  Level Jacksonville Center
Sat 07:06:33 PM 29.9192 -81.7711 339° North 410 472 37,000  Level Jacksonville Center
Sat 07:07:33 PM 30.0281 -81.8153 341° North 410 472 37,000  Level Jacksonville Center
Sat 07:08:34 PM 30.1244 -81.8528 341° North 410 472 37,000  Level Jacksonville Center
Sat 07:09:33 PM 30.2314 -81.8972 340° North 410 472 37,000  Level Jacksonville Center
Sat 07:10:33 PM 30.3381 -81.9394 341° North 410 472 37,000  Level Jacksonville Center
Sat 07:11:36 PM 30.4575 -81.9914 339° North 411 473 37,000  Level Jacksonville Center
Sat 07:12:45 PM 30.5769 -82.0481 338° Northwest 414 476 37,000  Level Jacksonville Center
Sat 07:13:45 PM 30.6836 -82.0956 339° North 414 476 37,000  Level Jacksonville Center
Sat 07:14:45 PM 30.7883 -82.1406 340° North 409 471 37,000  Level Jacksonville Center
Sat 07:15:45 PM 30.8950 -82.1881 339° North 409 471 37,000  Level Jacksonville Center
Sat 07:16:45 PM 31.0019 -82.2333 340° North 409 471 37,000  Level Jacksonville Center
Sat 07:17:45 PM 31.1086 -82.2761 341° North 409 471 37,000  Level Jacksonville Center
Sat 07:18:45 PM 31.2111 -82.3314 335° Northwest 409 471 37,000  Level Jacksonville Center
Sat 07:19:45 PM 31.3117 -82.3892 334° Northwest 404 465 37,000  Level Jacksonville Center
Sat 07:20:45 PM 31.4100 -82.4472 333° Northwest 397 457 37,000  Level Jacksonville Center
Sat 07:22:44 PM 31.6022 -82.5736 331° Northwest 395 455 37,000  Level Atlanta Center
Sat 07:23:44 PM 31.7011 -82.6353 332° Northwest 395 455 37,000  Level Atlanta Center
Sat 07:24:44 PM 31.7978 -82.7022 330° Northwest 400 460 37,000 250 Level Atlanta Center
Sat 07:25:44 PM 31.8944 -82.7644 331° Northwest 400 460 37,500 500 Climbing Atlanta Center
Sat 07:26:44 PM 31.9994 -82.8267 333° Northwest 400 460 38,000 250 Climbing Atlanta Center
Sat 07:27:44 PM 32.1042 -82.8792 337° Northwest 400 460 38,000  Level Atlanta Center
Sat 07:28:44 PM 32.2131 -82.9144 345° North 405 466 38,000  Level Atlanta Center
Sat 07:29:44 PM 32.3242 -82.9525 344° North 405 466 38,000  Level Atlanta Center
Sat 07:30:44 PM 32.4350 -82.9906 344° North 405 466 38,000  Level Atlanta Center
Sat 07:31:44 PM 32.5481 -83.0286 344° North 410 472 38,000  Level Atlanta Center
Sat 07:32:44 PM 32.6611 -83.0692 343° North 415 478 38,000  Level Atlanta Center
Sat 07:33:44 PM 32.7764 -83.1075 344° North 421 484 38,000  Level Atlanta Center
Sat 07:34:44 PM 32.8956 -83.1506 343° North 413 475 38,000  Level Atlanta Center
Sat 07:35:44 PM 33.0128 -83.1917 344° North 420 483 38,000  Level Atlanta Center
Sat 07:36:44 PM 33.1278 -83.2303 344° North 425 489 38,000  Level Atlanta Center
Sat 07:37:44 PM 33.2450 -83.2664 346° North 425 489 38,000  Level Atlanta Center
Sat 07:38:44 PM 33.3494 -83.3028 344° North 425 489 38,000  Level Atlanta Center
Sat 07:39:44 PM 33.4644 -83.3467 342° North 425 489 38,000  Level Atlanta Center
Sat 07:40:44 PM 33.5817 -83.3856 345° North 432 497 38,000  Level Atlanta Center
Sat 07:41:44 PM 33.6989 -83.4269 344° North 432 497 38,000  Level Atlanta Center
Sat 07:42:44 PM 33.8139 -83.4661 344° North 432 497 38,000  Level Atlanta Center
Sat 07:43:44 PM 33.9308 -83.5081 343° North 432 497 38,000  Level Atlanta Center
Sat 07:44:44 PM 34.0478 -83.5475 344° North 438 504 38,000  Level Atlanta Center
Sat 07:45:44 PM 34.1608 -83.5894 343° North 426 490 38,000  Level Atlanta Center
Sat 07:46:44 PM 34.2758 -83.6317 343° North 426 490 38,000  Level Atlanta Center
Sat 07:47:44 PM 34.4011 -83.6764 344° North 420 483 38,000  Level Atlanta Center
Sat 07:48:44 PM 34.5139 -83.7161 344° North 420 483 38,000  Level Atlanta Center
Sat 07:49:44 PM 34.6289 -83.7561 344° North 420 483 38,000  Level Atlanta Center
Sat 07:50:44 PM 34.7417 -83.7986 343° North 420 483 38,000  Level Atlanta Center
Sat 07:51:44 PM 34.8542 -83.8364 345° North 420 483 38,000  Level Atlanta Center
Sat 07:52:44 PM 34.9628 -83.8792 342° North 412 474 38,000  Level Atlanta Center
Sat 07:53:44 PM 35.0778 -83.9219 343° North 412 474 38,000  Level Atlanta Center
Sat 07:54:44 PM 35.1903 -83.9625 344° North 417 480 38,000  Level Atlanta Center
Sat 07:55:44 PM 35.3053 -84.0058 343° North 417 480 38,000  Level Atlanta Center
Sat 07:56:44 PM 35.4200 -84.0464 344° North 417 480 38,000  Level Atlanta Center
Sat 07:57:44 PM 35.5367 -84.0872 344° North 422 486 38,000  Level Atlanta Center
Sat 07:58:44 PM 35.6494 -84.1308 343° North 422 486 38,000  Level Atlanta Center
Sat 07:59:44 PM 35.7619 -84.1719 343° North 422 486 38,000  Level Atlanta Center
Sat 08:00:44 PM 35.8747 -84.2131 344° North 422 486 38,000  Level Atlanta Center
Sat 08:01:44 PM 35.9892 -84.2544 344° North 422 486 38,000  Level Atlanta Center
Sat 08:03:19 PM 36.1642 -84.3206 343° North 427 491 38,000  Level Indianapolis Center
Sat 08:04:19 PM 36.2767 -84.3628 343° North 425 489 38,000  Level Indianapolis Center
Sat 08:05:20 PM 36.3869 -84.4047 343° North 419 482 38,000  Level Indianapolis Center
Sat 08:06:21 PM 36.4986 -84.4461 343° North 419 482 38,000  Level Indianapolis Center
Sat 08:07:22 PM 36.6058 -84.4875 343° North 412 474 38,000  Level Indianapolis Center
Sat 08:08:23 PM 36.7183 -84.5303 343° North 415 478 38,000  Level Indianapolis Center
Sat 08:09:23 PM 36.8267 -84.5714 343° North 410 472 38,000  Level Indianapolis Center
Sat 08:10:24 PM 36.9344 -84.6122 343° North 407 468 38,000  Level Indianapolis Center
Sat 08:11:25 PM 37.0608 -84.6606 343° North 404 465 38,000  Level Indianapolis Center
Sat 08:12:26 PM 37.1672 -84.7008 343° North 401 461 38,000  Level Indianapolis Center
Sat 08:13:27 PM 37.2731 -84.7433 342° North 398 458 38,000  Level Indianapolis Center
Sat 08:14:27 PM 37.3792 -84.7828 344° North 396 456 38,000  Level Indianapolis Center
Sat 08:15:28 PM 37.4856 -84.8239 343° North 398 458 38,000  Level Indianapolis Center
Sat 08:16:29 PM 37.5886 -84.8650 342° North 391 450 38,000  Level Indianapolis Center
Sat 08:17:30 PM 37.6936 -84.9061 343° North 393 452 38,000  Level Indianapolis Center
Sat 08:18:31 PM 37.7975 -84.9469 343° North 391 450 38,000  Level Indianapolis Center
Sat 08:19:32 PM 37.9056 -84.9864 344° North 401 461 38,000  Level Indianapolis Center
Sat 08:20:32 PM 38.0094 -85.0278 343° North 393 452 38,000  Level Indianapolis Center
Sat 08:21:33 PM 38.1139 -85.0706 342° North 392 451 38,000  Level Indianapolis Center
Sat 08:22:34 PM 38.2186 -85.1100 344° North 393 452 38,000  Level Indianapolis Center
Sat 08:23:35 PM 38.3231 -85.1522 342° North 393 452 38,000  Level Indianapolis Center
Sat 08:24:36 PM 38.4275 -85.1936 343° North 392 451 38,000  Level Indianapolis Center
Sat 08:25:37 PM 38.5250 -85.2328 343° North 390 449 38,000  Level Indianapolis Center
Sat 08:26:37 PM 38.6444 -85.2811 342° North 391 450 38,000  Level Indianapolis Center
Sat 08:27:38 PM 38.7483 -85.3225 343° North 391 450 38,000  Level Indianapolis Center
Sat 08:28:39 PM 38.8497 -85.3633 343° North 385 443 38,000  Level Indianapolis Center
Sat 08:29:40 PM 38.9517 -85.4047 342° North 385 443 38,000 -443 Level Indianapolis Center
Sat 08:30:41 PM 39.0539 -85.4458 343° North 385 443 37,100 -984 Descending Indianapolis Center
Sat 08:31:42 PM 39.1567 -85.4878 342° North 387 445 36,000 -1,934 Descending Indianapolis Center
Sat 08:32:42 PM 39.2617 -85.5308 342° North 395 455 33,200 -2,529 Descending Indianapolis Center
Sat 08:33:43 PM 39.3675 -85.5744 342° North 398 458 30,900 -1,721 Descending Indianapolis Center
Sat 08:34:44 PM 39.4689 -85.6156 343° North 388 447 29,700 -934 Descending Indianapolis Center
Sat 08:35:45 PM 39.5717 -85.6578 342° North 387 445 29,000 -344 Descending Indianapolis Center
Sat 08:36:46 PM 39.6750 -85.6997 343° North 390 449 29,000 -694 Level Indianapolis Center
Sat 08:37:46 PM 39.7956 -85.7500 342° North 384 442 27,600 -1,736 Descending Indianapolis Center
Sat 08:38:47 PM 39.8947 -85.7917 342° North 379 436 25,500 -1,770 Descending Indianapolis Center
Sat 08:39:48 PM 39.9900 -85.8311 342° North 366 421 24,000 -738 Descending Indianapolis Center
Sat 08:40:49 PM 40.0883 -85.8714 343° North 371 427 24,000  Level Indianapolis Center
Sat 08:41:47 PM 40.1808 -85.9253 336° Northwest 371 427 24,000  Level Chicago Center
Sat 08:42:48 PM 40.2642 -85.9997 326° Northwest 368 423 24,000  Level Chicago Center
Sat 08:43:49 PM 40.3467 -86.0753 325° Northwest 366 421 24,000  Level Chicago Center
Sat 08:44:50 PM 40.4306 -86.1514 325° Northwest 368 423 24,000 -197 Level Chicago Center
Sat 08:45:51 PM 40.5153 -86.2283 325° Northwest 372 428 23,600 -689 Descending Chicago Center
Sat 08:46:52 PM 40.5978 -86.3036 325° Northwest 365 420 22,600 -984 Descending Chicago Center
Sat 08:47:53 PM 40.6783 -86.3792 325° Northwest 359 413 21,600 -1,082 Descending Chicago Center
Sat 08:48:54 PM 40.7700 -86.4614 326° Northwest 356 410 20,400 -1,279 Descending Chicago Center
Sat 08:49:55 PM 40.8492 -86.5367 324° Northwest 351 404 19,000 -1,463 Descending Chicago Center
Sat 08:50:57 PM 40.9250 -86.6061 325° Northwest 335 386 17,400 -1,805 Descending Chicago Center
Sat 08:51:58 PM 41.0031 -86.6781 325° Northwest 341 392 15,300 -2,066 Descending Chicago Center
Sat 08:52:59 PM 41.0853 -86.7542 325° Northwest 336 387 13,200 -2,016 Descending Chicago Center
Sat 08:54:00 PM 41.1586 -86.8242 324° Northwest 330 380 11,200 -1,525 Descending Chicago Center
Sat 08:55:01 PM 41.2303 -86.8897 325° Northwest 320 368 10,100 -590 Descending Chicago Center
Sat 08:56:02 PM 41.2956 -86.9528 324° Northwest 300 345 10,000 -246 Descending Chicago Center
Sat 08:57:03 PM 41.3592 -87.0111 325° Northwest 280 322 9,600 -836 Descending Chicago Center
Sat 08:58:04 PM 41.4125 -87.0742 318° Northwest 272 313 8,300 -1,180 Descending Chicago Center
Sat 08:59:05 PM 41.4447 -87.1869 291° West 276 318 7,200 -1,180 Descending Chicago Center
Sat 09:00:06 PM 41.4728 -87.2836 291° West 281 323 5,900 -1,230 Descending Chicago Center
Sat 09:01:07 PM 41.5006 -87.3794 291° West 282 325 4,700 -1,180 Descending Chicago Center
Sat 09:02:08 PM 41.5261 -87.4706 291° West 272 313 3,500 -836 Descending Chicago Center
Sat 09:03:09 PM 41.5506 -87.5575 291° West 263 303 3,000 -246 Descending Chicago Center
Sat 09:04:10 PM 41.5736 -87.6392 291° West 250 288 3,000 -148 Level Chicago Center
Sat 09:05:11 PM 41.6081 -87.7133 302° West 243 280 2,700 -246 Descending Chicago Center
Sat 09:06:12 PM 41.6456 -87.7789 307° West 234 269 2,500 -148 Descending Chicago Center
Sat 09:07:13 PM 41.6894 -87.8319 318° Northwest 194 223 2,400 -197 Descending Chicago Center
Sat 09:08:14 PM 41.7278 -87.8244 North 161 185 2,100 -541 Descending Chicago Center
Sat 09:09:15 PM 41.7581 -87.7889 41° Northeast 149 171 1,300 -541 Descending Chicago Center
Sat 09:10:16 PM 41.7836 -87.7556 44° Northeast 147 169 1,000 -295 Descending Chicago Center

Login

Don't have an account? Register now (free) for customized features, flight alerts, and more!